sensor_id;sensor_type;location;lat;lon;timestamp;temperature;humidity
3172;DHT22;1597;51.572;6.992;2023-06-24T00:01:26;21.40;93.20
3172;DHT22;1597;51.572;6.992;2023-06-24T00:03:52;21.40;93.60
3172;DHT22;1597;51.572;6.992;2023-06-24T00:06:19;21.30;93.80
3172;DHT22;1597;51.572;6.992;2023-06-24T00:08:46;21.20;95.80
3172;DHT22;1597;51.572;6.992;2023-06-24T00:11:12;21.10;96.20
3172;DHT22;1597;51.572;6.992;2023-06-24T00:13:42;21.10;97.50
3172;DHT22;1597;51.572;6.992;2023-06-24T00:16:10;21.10;98.00
3172;DHT22;1597;51.572;6.992;2023-06-24T00:18:37;21.20;96.60
3172;DHT22;1597;51.572;6.992;2023-06-24T00:21:07;21.30;95.70
3172;DHT22;1597;51.572;6.992;2023-06-24T00:23:36;21.30;95.50
3172;DHT22;1597;51.572;6.992;2023-06-24T00:26:04;21.30;94.90
3172;DHT22;1597;51.572;6.992;2023-06-24T00:28:30;21.30;92.10
3172;DHT22;1597;51.572;6.992;2023-06-24T00:30:56;21.30;92.30
3172;DHT22;1597;51.572;6.992;2023-06-24T00:33:22;21.20;90.80
3172;DHT22;1597;51.572;6.992;2023-06-24T00:35:48;21.10;92.70
3172;DHT22;1597;51.572;6.992;2023-06-24T00:38:14;21.10;94.20
3172;DHT22;1597;51.572;6.992;2023-06-24T00:40:41;21.10;92.80
3172;DHT22;1597;51.572;6.992;2023-06-24T00:43:08;21.10;90.60
3172;DHT22;1597;51.572;6.992;2023-06-24T00:45:35;21.10;92.90
3172;DHT22;1597;51.572;6.992;2023-06-24T00:48:01;21.10;92.70
3172;DHT22;1597;51.572;6.992;2023-06-24T00:50:28;21.10;92.90
3172;DHT22;1597;51.572;6.992;2023-06-24T00:52:55;21.00;91.60
3172;DHT22;1597;51.572;6.992;2023-06-24T00:55:21;21.00;92.50
3172;DHT22;1597;51.572;6.992;2023-06-24T00:57:51;21.10;90.40
3172;DHT22;1597;51.572;6.992;2023-06-24T01:00:20;21.10;87.50
3172;DHT22;1597;51.572;6.992;2023-06-24T01:02:49;21.20;90.20
3172;DHT22;1597;51.572;6.992;2023-06-24T01:05:16;21.30;88.20
3172;DHT22;1597;51.572;6.992;2023-06-24T01:07:42;21.30;87.40
3172;DHT22;1597;51.572;6.992;2023-06-24T01:10:10;21.40;85.90
3172;DHT22;1597;51.572;6.992;2023-06-24T01:12:41;21.40;86.10
3172;DHT22;1597;51.572;6.992;2023-06-24T01:15:10;21.50;85.20
3172;DHT22;1597;51.572;6.992;2023-06-24T01:20:34;21.70;84.30
3172;DHT22;1597;51.572;6.992;2023-06-24T01:34:49;21.00;93.90
3172;DHT22;1597;51.572;6.992;2023-06-24T01:37:35;21.00;93.90
3172;DHT22;1597;51.572;6.992;2023-06-24T01:42:39;21.00;94.40
3172;DHT22;1597;51.572;6.992;2023-06-24T01:45:12;21.00;94.60
3172;DHT22;1597;51.572;6.992;2023-06-24T01:47:43;20.90;95.30
3172;DHT22;1597;51.572;6.992;2023-06-24T01:50:14;20.90;97.10
3172;DHT22;1597;51.572;6.992;2023-06-24T01:52:44;20.80;95.70
3172;DHT22;1597;51.572;6.992;2023-06-24T01:55:13;20.70;97.60
3172;DHT22;1597;51.572;6.992;2023-06-24T01:57:48;20.70;98.80
3172;DHT22;1597;51.572;6.992;2023-06-24T02:00:17;20.70;99.30
3172;DHT22;1597;51.572;6.992;2023-06-24T02:02:43;20.70;96.90
3172;DHT22;1597;51.572;6.992;2023-06-24T02:05:13;20.80;98.00
3172;DHT22;1597;51.572;6.992;2023-06-24T02:07:42;20.90;98.40
3172;DHT22;1597;51.572;6.992;2023-06-24T02:10:08;21.00;96.50
3172;DHT22;1597;51.572;6.992;2023-06-24T02:12:36;21.00;95.60
3172;DHT22;1597;51.572;6.992;2023-06-24T02:15:02;21.00;94.80
3172;DHT22;1597;51.572;6.992;2023-06-24T02:17:32;20.70;96.60
3172;DHT22;1597;51.572;6.992;2023-06-24T02:19:59;21.00;95.30
3172;DHT22;1597;51.572;6.992;2023-06-24T02:22:26;20.80;95.50
3172;DHT22;1597;51.572;6.992;2023-06-24T02:24:53;20.80;96.60
3172;DHT22;1597;51.572;6.992;2023-06-24T02:27:20;20.80;99.10
3172;DHT22;1597;51.572;6.992;2023-06-24T02:29:47;20.80;97.80
3172;DHT22;1597;51.572;6.992;2023-06-24T02:32:13;20.80;97.40
3172;DHT22;1597;51.572;6.992;2023-06-24T02:34:40;20.90;97.40
3172;DHT22;1597;51.572;6.992;2023-06-24T02:37:06;20.80;97.30
3172;DHT22;1597;51.572;6.992;2023-06-24T02:39:31;20.80;96.20
3172;DHT22;1597;51.572;6.992;2023-06-24T02:41:57;20.70;96.20
3172;DHT22;1597;51.572;6.992;2023-06-24T02:44:23;20.60;97.10
3172;DHT22;1597;51.572;6.992;2023-06-24T02:46:50;20.60;99.60
3172;DHT22;1597;51.572;6.992;2023-06-24T02:49:17;20.60;99.90
3172;DHT22;1597;51.572;6.992;2023-06-24T02:51:44;20.80;97.90
3172;DHT22;1597;51.572;6.992;2023-06-24T02:54:10;20.80;97.70
3172;DHT22;1597;51.572;6.992;2023-06-24T02:56:37;20.80;97.20
3172;DHT22;1597;51.572;6.992;2023-06-24T02:59:07;20.70;98.90
3172;DHT22;1597;51.572;6.992;2023-06-24T03:01:34;20.70;98.80
3172;DHT22;1597;51.572;6.992;2023-06-24T03:04:04;20.70;97.70
3172;DHT22;1597;51.572;6.992;2023-06-24T03:06:32;20.80;96.40
3172;DHT22;1597;51.572;6.992;2023-06-24T03:08:58;20.70;96.60
3172;DHT22;1597;51.572;6.992;2023-06-24T03:11:25;20.70;98.60
3172;DHT22;1597;51.572;6.992;2023-06-24T03:13:53;20.70;96.20
3172;DHT22;1597;51.572;6.992;2023-06-24T03:16:19;20.70;96.00
3172;DHT22;1597;51.572;6.992;2023-06-24T03:18:45;20.70;98.70
3172;DHT22;1597;51.572;6.992;2023-06-24T03:21:11;20.80;96.80
3172;DHT22;1597;51.572;6.992;2023-06-24T03:23:36;20.80;94.70
3172;DHT22;1597;51.572;6.992;2023-06-24T03:26:04;20.80;94.80
3172;DHT22;1597;51.572;6.992;2023-06-24T03:28:31;20.80;94.80
3172;DHT22;1597;51.572;6.992;2023-06-24T03:30:58;20.70;94.70
3172;DHT22;1597;51.572;6.992;2023-06-24T03:33:24;20.60;95.50
3172;DHT22;1597;51.572;6.992;2023-06-24T03:35:52;20.50;97.00
3172;DHT22;1597;51.572;6.992;2023-06-24T03:38:18;20.50;99.80
3172;DHT22;1597;51.572;6.992;2023-06-24T03:40:46;20.50;97.90
3172;DHT22;1597;51.572;6.992;2023-06-24T03:43:13;20.60;95.80
3172;DHT22;1597;51.572;6.992;2023-06-24T03:45:38;20.50;96.60
3172;DHT22;1597;51.572;6.992;2023-06-24T03:48:04;20.60;97.60
3172;DHT22;1597;51.572;6.992;2023-06-24T03:50:31;20.50;95.60
3172;DHT22;1597;51.572;6.992;2023-06-24T03:52:56;20.50;96.00
3172;DHT22;1597;51.572;6.992;2023-06-24T03:55:22;20.50;95.80
3172;DHT22;1597;51.572;6.992;2023-06-24T03:57:48;20.60;96.70
3172;DHT22;1597;51.572;6.992;2023-06-24T04:00:14;20.60;95.50
3172;DHT22;1597;51.572;6.992;2023-06-24T04:02:46;20.70;96.70
3172;DHT22;1597;51.572;6.992;2023-06-24T04:05:12;20.70;95.10
3172;DHT22;1597;51.572;6.992;2023-06-24T04:07:38;20.80;95.30
3172;DHT22;1597;51.572;6.992;2023-06-24T04:10:05;20.80;93.70
3172;DHT22;1597;51.572;6.992;2023-06-24T04:12:37;20.70;95.90
3172;DHT22;1597;51.572;6.992;2023-06-24T04:15:04;20.80;94.70
3172;DHT22;1597;51.572;6.992;2023-06-24T04:17:31;20.80;93.60
3172;DHT22;1597;51.572;6.992;2023-06-24T04:19:57;20.70;94.50
3172;DHT22;1597;51.572;6.992;2023-06-24T04:22:24;20.70;94.30
3172;DHT22;1597;51.572;6.992;2023-06-24T04:24:50;20.70;94.80
3172;DHT22;1597;51.572;6.992;2023-06-24T04:27:16;20.70;95.30
3172;DHT22;1597;51.572;6.992;2023-06-24T04:29:42;20.70;94.40
3172;DHT22;1597;51.572;6.992;2023-06-24T04:32:08;20.70;95.10
3172;DHT22;1597;51.572;6.992;2023-06-24T04:34:34;20.70;93.30
3172;DHT22;1597;51.572;6.992;2023-06-24T04:36:59;20.70;95.10
3172;DHT22;1597;51.572;6.992;2023-06-24T04:39:25;20.80;94.30
3172;DHT22;1597;51.572;6.992;2023-06-24T04:41:51;20.80;94.30
3172;DHT22;1597;51.572;6.992;2023-06-24T04:44:17;20.90;94.00
3172;DHT22;1597;51.572;6.992;2023-06-24T04:46:43;20.90;93.00
3172;DHT22;1597;51.572;6.992;2023-06-24T04:49:09;20.90;91.90
3172;DHT22;1597;51.572;6.992;2023-06-24T04:51:35;20.80;92.50
3172;DHT22;1597;51.572;6.992;2023-06-24T04:54:02;20.70;95.00
3172;DHT22;1597;51.572;6.992;2023-06-24T04:56:29;20.80;94.00
3172;DHT22;1597;51.572;6.992;2023-06-24T04:58:55;20.70;91.60
3172;DHT22;1597;51.572;6.992;2023-06-24T05:01:22;20.50;95.60
3172;DHT22;1597;51.572;6.992;2023-06-24T05:03:48;20.50;97.90
3172;DHT22;1597;51.572;6.992;2023-06-24T05:06:15;20.60;96.50
3172;DHT22;1597;51.572;6.992;2023-06-24T05:08:41;20.70;96.60
3172;DHT22;1597;51.572;6.992;2023-06-24T05:11:06;20.70;92.80
3172;DHT22;1597;51.572;6.992;2023-06-24T05:13:32;20.70;98.00
3172;DHT22;1597;51.572;6.992;2023-06-24T05:15:58;20.70;95.10
3172;DHT22;1597;51.572;6.992;2023-06-24T05:18:24;20.70;97.20
3172;DHT22;1597;51.572;6.992;2023-06-24T05:20:50;20.70;97.40
3172;DHT22;1597;51.572;6.992;2023-06-24T05:23:15;20.80;96.90
3172;DHT22;1597;51.572;6.992;2023-06-24T05:25:41;20.80;97.80
3172;DHT22;1597;51.572;6.992;2023-06-24T05:28:07;20.90;94.40
3172;DHT22;1597;51.572;6.992;2023-06-24T05:30:33;20.90;94.30
3172;DHT22;1597;51.572;6.992;2023-06-24T05:32:58;20.90;95.40
3172;DHT22;1597;51.572;6.992;2023-06-24T05:35:25;20.90;95.00
3172;DHT22;1597;51.572;6.992;2023-06-24T05:37:52;20.80;95.50
3172;DHT22;1597;51.572;6.992;2023-06-24T05:40:18;20.80;93.90
3172;DHT22;1597;51.572;6.992;2023-06-24T05:42:43;20.70;96.60
3172;DHT22;1597;51.572;6.992;2023-06-24T05:45:09;20.70;97.30
3172;DHT22;1597;51.572;6.992;2023-06-24T05:47:36;20.80;96.30
3172;DHT22;1597;51.572;6.992;2023-06-24T05:50:03;20.80;94.10
3172;DHT22;1597;51.572;6.992;2023-06-24T05:52:30;20.70;98.20
3172;DHT22;1597;51.572;6.992;2023-06-24T05:54:55;20.60;99.50
3172;DHT22;1597;51.572;6.992;2023-06-24T05:57:21;20.60;99.10
3172;DHT22;1597;51.572;6.992;2023-06-24T05:59:47;20.60;98.20
3172;DHT22;1597;51.572;6.992;2023-06-24T06:02:13;20.60;99.10
3172;DHT22;1597;51.572;6.992;2023-06-24T06:04:39;20.60;99.90
3172;DHT22;1597;51.572;6.992;2023-06-24T06:07:05;20.70;99.90
3172;DHT22;1597;51.572;6.992;2023-06-24T06:09:31;20.80;99.90
3172;DHT22;1597;51.572;6.992;2023-06-24T06:11:57;20.90;98.70
3172;DHT22;1597;51.572;6.992;2023-06-24T06:14:23;21.00;97.70
3172;DHT22;1597;51.572;6.992;2023-06-24T06:16:49;20.90;98.20
3172;DHT22;1597;51.572;6.992;2023-06-24T06:19:14;20.80;99.50
3172;DHT22;1597;51.572;6.992;2023-06-24T06:21:40;20.80;99.90
3172;DHT22;1597;51.572;6.992;2023-06-24T06:24:06;20.80;99.90
3172;DHT22;1597;51.572;6.992;2023-06-24T06:26:33;20.90;99.90
3172;DHT22;1597;51.572;6.992;2023-06-24T06:28:59;20.90;99.90
3172;DHT22;1597;51.572;6.992;2023-06-24T06:31:25;20.80;99.90
3172;DHT22;1597;51.572;6.992;2023-06-24T06:33:55;20.70;99.90
3172;DHT22;1597;51.572;6.992;2023-06-24T06:36:21;20.70;99.90
3172;DHT22;1597;51.572;6.992;2023-06-24T06:38:47;20.70;99.90
3172;DHT22;1597;51.572;6.992;2023-06-24T06:41:13;20.70;99.90
3172;DHT22;1597;51.572;6.992;2023-06-24T06:43:41;20.70;99.90
3172;DHT22;1597;51.572;6.992;2023-06-24T06:46:07;20.80;99.90
3172;DHT22;1597;51.572;6.992;2023-06-24T06:48:34;20.70;99.90
3172;DHT22;1597;51.572;6.992;2023-06-24T06:51:01;21.00;99.90
3172;DHT22;1597;51.572;6.992;2023-06-24T06:53:27;21.10;99.90
3172;DHT22;1597;51.572;6.992;2023-06-24T06:55:53;21.10;99.90
3172;DHT22;1597;51.572;6.992;2023-06-24T06:58:19;21.20;99.90
3172;DHT22;1597;51.572;6.992;2023-06-24T07:00:45;21.20;99.90
3172;DHT22;1597;51.572;6.992;2023-06-24T07:03:11;21.30;99.90
3172;DHT22;1597;51.572;6.992;2023-06-24T07:05:37;21.30;99.90
3172;DHT22;1597;51.572;6.992;2023-06-24T07:08:05;21.40;99.90
3172;DHT22;1597;51.572;6.992;2023-06-24T07:10:31;21.40;99.90
3172;DHT22;1597;51.572;6.992;2023-06-24T07:13:00;21.50;99.90
3172;DHT22;1597;51.572;6.992;2023-06-24T07:15:27;21.50;99.90
3172;DHT22;1597;51.572;6.992;2023-06-24T07:17:53;21.60;99.90
3172;DHT22;1597;51.572;6.992;2023-06-24T07:20:21;21.70;99.90
3172;DHT22;1597;51.572;6.992;2023-06-24T07:22:47;21.70;99.90
3172;DHT22;1597;51.572;6.992;2023-06-24T07:25:14;21.70;99.90
3172;DHT22;1597;51.572;6.992;2023-06-24T07:27:40;21.70;99.90
3172;DHT22;1597;51.572;6.992;2023-06-24T07:30:06;21.80;99.90
3172;DHT22;1597;51.572;6.992;2023-06-24T07:32:33;21.80;99.90
3172;DHT22;1597;51.572;6.992;2023-06-24T07:34:59;21.90;99.90
3172;DHT22;1597;51.572;6.992;2023-06-24T07:37:25;22.00;99.90
3172;DHT22;1597;51.572;6.992;2023-06-24T07:39:53;22.10;99.30
3172;DHT22;1597;51.572;6.992;2023-06-24T07:42:20;22.10;99.20
3172;DHT22;1597;51.572;6.992;2023-06-24T07:44:46;22.10;99.80
3172;DHT22;1597;51.572;6.992;2023-06-24T07:47:13;22.20;98.40
3172;DHT22;1597;51.572;6.992;2023-06-24T07:49:40;22.20;97.80
3172;DHT22;1597;51.572;6.992;2023-06-24T07:52:06;22.30;98.10
3172;DHT22;1597;51.572;6.992;2023-06-24T07:54:34;22.20;98.10
3172;DHT22;1597;51.572;6.992;2023-06-24T07:57:01;22.50;98.20
3172;DHT22;1597;51.572;6.992;2023-06-24T07:59:27;22.60;96.70
3172;DHT22;1597;51.572;6.992;2023-06-24T08:01:54;22.70;94.60
3172;DHT22;1597;51.572;6.992;2023-06-24T08:04:20;22.70;95.40
3172;DHT22;1597;51.572;6.992;2023-06-24T08:06:46;22.80;95.20
3172;DHT22;1597;51.572;6.992;2023-06-24T08:09:12;22.80;94.70
3172;DHT22;1597;51.572;6.992;2023-06-24T08:11:45;22.90;93.50
3172;DHT22;1597;51.572;6.992;2023-06-24T08:14:13;22.90;92.20
3172;DHT22;1597;51.572;6.992;2023-06-24T08:16:39;23.00;94.20
3172;DHT22;1597;51.572;6.992;2023-06-24T08:19:08;23.00;89.10
3172;DHT22;1597;51.572;6.992;2023-06-24T08:21:38;23.20;86.00
3172;DHT22;1597;51.572;6.992;2023-06-24T08:24:04;23.20;75.90
3172;DHT22;1597;51.572;6.992;2023-06-24T08:26:31;23.30;79.90
3172;DHT22;1597;51.572;6.992;2023-06-24T08:28:56;23.30;77.10
3172;DHT22;1597;51.572;6.992;2023-06-24T08:31:25;23.30;68.90
3172;DHT22;1597;51.572;6.992;2023-06-24T08:33:54;23.30;76.50
3172;DHT22;1597;51.572;6.992;2023-06-24T08:36:27;23.30;79.00
3172;DHT22;1597;51.572;6.992;2023-06-24T08:38:53;23.40;59.80
3172;DHT22;1597;51.572;6.992;2023-06-24T08:41:19;23.50;57.90
3172;DHT22;1597;51.572;6.992;2023-06-24T08:43:45;23.60;57.40
3172;DHT22;1597;51.572;6.992;2023-06-24T08:46:14;23.60;51.70
3172;DHT22;1597;51.572;6.992;2023-06-24T08:48:42;23.60;57.00
3172;DHT22;1597;51.572;6.992;2023-06-24T08:51:14;23.70;45.30
3172;DHT22;1597;51.572;6.992;2023-06-24T08:53:43;23.70;36.60
3172;DHT22;1597;51.572;6.992;2023-06-24T08:56:09;23.80;42.30
3172;DHT22;1597;51.572;6.992;2023-06-24T08:58:35;23.90;36.40
3172;DHT22;1597;51.572;6.992;2023-06-24T09:01:02;23.90;30.90
3172;DHT22;1597;51.572;6.992;2023-06-24T09:03:28;24.00;31.60
3172;DHT22;1597;51.572;6.992;2023-06-24T09:05:54;24.10;30.70
3172;DHT22;1597;51.572;6.992;2023-06-24T09:08:21;24.20;23.20
3172;DHT22;1597;51.572;6.992;2023-06-24T09:10:53;24.20;25.20
3172;DHT22;1597;51.572;6.992;2023-06-24T09:13:21;24.20;29.00
3172;DHT22;1597;51.572;6.992;2023-06-24T09:15:48;24.30;22.20
3172;DHT22;1597;51.572;6.992;2023-06-24T09:18:14;24.30;22.60
3172;DHT22;1597;51.572;6.992;2023-06-24T09:20:43;24.30;23.40
3172;DHT22;1597;51.572;6.992;2023-06-24T09:23:11;24.40;1.00
3172;DHT22;1597;51.572;6.992;2023-06-24T09:25:40;24.40;1.00
3172;DHT22;1597;51.572;6.992;2023-06-24T09:28:06;24.50;1.00
3172;DHT22;1597;51.572;6.992;2023-06-24T09:30:32;24.60;1.00
3172;DHT22;1597;51.572;6.992;2023-06-24T09:32:58;24.60;1.00
3172;DHT22;1597;51.572;6.992;2023-06-24T09:35:26;24.70;1.00
3172;DHT22;1597;51.572;6.992;2023-06-24T09:37:53;24.70;1.00
3172;DHT22;1597;51.572;6.992;2023-06-24T09:40:20;24.70;1.00
3172;DHT22;1597;51.572;6.992;2023-06-24T09:42:55;24.80;1.00
3172;DHT22;1597;51.572;6.992;2023-06-24T09:45:26;24.80;1.00
3172;DHT22;1597;51.572;6.992;2023-06-24T09:47:54;24.90;1.00
3172;DHT22;1597;51.572;6.992;2023-06-24T09:50:21;25.00;1.00
3172;DHT22;1597;51.572;6.992;2023-06-24T09:52:49;25.00;1.00
3172;DHT22;1597;51.572;6.992;2023-06-24T09:55:17;25.10;1.00
3172;DHT22;1597;51.572;6.992;2023-06-24T09:57:49;25.10;1.00
3172;DHT22;1597;51.572;6.992;2023-06-24T10:00:19;25.10;1.00
3172;DHT22;1597;51.572;6.992;2023-06-24T10:02:47;25.20;1.00
3172;DHT22;1597;51.572;6.992;2023-06-24T10:05:14;25.20;1.00
3172;DHT22;1597;51.572;6.992;2023-06-24T10:07:40;25.20;1.00
3172;DHT22;1597;51.572;6.992;2023-06-24T10:10:07;25.20;1.00
3172;DHT22;1597;51.572;6.992;2023-06-24T10:12:35;25.30;1.00
3172;DHT22;1597;51.572;6.992;2023-06-24T10:15:02;25.40;1.00
3172;DHT22;1597;51.572;6.992;2023-06-24T10:17:30;25.50;1.00
3172;DHT22;1597;51.572;6.992;2023-06-24T10:19:56;25.50;1.00
3172;DHT22;1597;51.572;6.992;2023-06-24T10:22:25;25.50;1.00
3172;DHT22;1597;51.572;6.992;2023-06-24T10:24:52;25.60;1.00
3172;DHT22;1597;51.572;6.992;2023-06-24T10:27:21;25.50;1.00
3172;DHT22;1597;51.572;6.992;2023-06-24T10:29:53;25.60;1.00
3172;DHT22;1597;51.572;6.992;2023-06-24T10:32:22;25.60;1.00
3172;DHT22;1597;51.572;6.992;2023-06-24T10:34:56;25.70;1.00
3172;DHT22;1597;51.572;6.992;2023-06-24T10:37:47;25.70;1.00
3172;DHT22;1597;51.572;6.992;2023-06-24T10:40:38;25.80;1.00
3172;DHT22;1597;51.572;6.992;2023-06-24T10:43:27;25.90;1.00
3172;DHT22;1597;51.572;6.992;2023-06-24T10:45:58;25.90;1.00
3172;DHT22;1597;51.572;6.992;2023-06-24T10:48:29;26.00;1.00
3172;DHT22;1597;51.572;6.992;2023-06-24T10:50:58;26.00;1.00
3172;DHT22;1597;51.572;6.992;2023-06-24T10:53:24;26.10;1.00
3172;DHT22;1597;51.572;6.992;2023-06-24T10:55:50;26.10;1.00
3172;DHT22;1597;51.572;6.992;2023-06-24T10:58:16;26.10;1.00
3172;DHT22;1597;51.572;6.992;2023-06-24T11:00:42;26.20;1.00
3172;DHT22;1597;51.572;6.992;2023-06-24T11:03:13;26.20;1.00
3172;DHT22;1597;51.572;6.992;2023-06-24T11:05:44;26.20;1.00
3172;DHT22;1597;51.572;6.992;2023-06-24T11:08:11;26.30;1.00
3172;DHT22;1597;51.572;6.992;2023-06-24T11:10:47;26.40;1.00
3172;DHT22;1597;51.572;6.992;2023-06-24T11:13:14;26.40;1.00
3172;DHT22;1597;51.572;6.992;2023-06-24T11:15:42;26.50;1.00
3172;DHT22;1597;51.572;6.992;2023-06-24T11:18:09;26.50;1.00
3172;DHT22;1597;51.572;6.992;2023-06-24T11:20:37;26.50;1.00
3172;DHT22;1597;51.572;6.992;2023-06-24T11:23:10;26.40;1.00
3172;DHT22;1597;51.572;6.992;2023-06-24T11:25:43;26.50;1.00
3172;DHT22;1597;51.572;6.992;2023-06-24T11:28:17;26.60;1.00
3172;DHT22;1597;51.572;6.992;2023-06-24T11:30:44;26.80;1.00
3172;DHT22;1597;51.572;6.992;2023-06-24T11:33:10;26.70;1.00
3172;DHT22;1597;51.572;6.992;2023-06-24T11:35:35;26.70;1.00
3172;DHT22;1597;51.572;6.992;2023-06-24T11:38:02;26.80;1.00
3172;DHT22;1597;51.572;6.992;2023-06-24T11:40:30;26.80;1.00
3172;DHT22;1597;51.572;6.992;2023-06-24T11:43:00;26.80;1.00
3172;DHT22;1597;51.572;6.992;2023-06-24T11:45:26;26.90;1.00
3172;DHT22;1597;51.572;6.992;2023-06-24T11:47:52;26.90;1.00
3172;DHT22;1597;51.572;6.992;2023-06-24T11:50:18;26.90;1.00
3172;DHT22;1597;51.572;6.992;2023-06-24T11:52:51;26.90;1.00
3172;DHT22;1597;51.572;6.992;2023-06-24T11:55:22;26.90;1.00
3172;DHT22;1597;51.572;6.992;2023-06-24T11:58:00;27.00;1.00
3172;DHT22;1597;51.572;6.992;2023-06-24T12:00:36;26.90;1.00
3172;DHT22;1597;51.572;6.992;2023-06-24T12:03:07;26.90;1.00
3172;DHT22;1597;51.572;6.992;2023-06-24T12:05:36;26.90;1.00
3172;DHT22;1597;51.572;6.992;2023-06-24T12:08:05;26.90;1.00
3172;DHT22;1597;51.572;6.992;2023-06-24T12:10:36;27.00;1.00
3172;DHT22;1597;51.572;6.992;2023-06-24T12:13:04;27.00;1.00
3172;DHT22;1597;51.572;6.992;2023-06-24T12:15:31;27.00;1.00
3172;DHT22;1597;51.572;6.992;2023-06-24T12:17:57;27.20;1.00
3172;DHT22;1597;51.572;6.992;2023-06-24T12:20:28;27.40;1.00
3172;DHT22;1597;51.572;6.992;2023-06-24T12:22:55;27.40;1.00
3172;DHT22;1597;51.572;6.992;2023-06-24T12:25:21;27.30;1.00
3172;DHT22;1597;51.572;6.992;2023-06-24T12:27:47;27.20;1.00
3172;DHT22;1597;51.572;6.992;2023-06-24T12:30:13;27.20;1.00
3172;DHT22;1597;51.572;6.992;2023-06-24T12:32:39;27.30;1.00
3172;DHT22;1597;51.572;6.992;2023-06-24T12:35:06;27.40;1.00
3172;DHT22;1597;51.572;6.992;2023-06-24T12:37:34;27.50;1.00
3172;DHT22;1597;51.572;6.992;2023-06-24T12:40:01;27.50;1.00
3172;DHT22;1597;51.572;6.992;2023-06-24T12:42:28;27.50;1.00
3172;DHT22;1597;51.572;6.992;2023-06-24T12:44:57;27.50;1.00
3172;DHT22;1597;51.572;6.992;2023-06-24T12:47:27;27.40;1.00
3172;DHT22;1597;51.572;6.992;2023-06-24T12:49:53;27.40;1.00
3172;DHT22;1597;51.572;6.992;2023-06-24T12:52:19;27.50;1.00
3172;DHT22;1597;51.572;6.992;2023-06-24T12:54:45;27.60;1.00
3172;DHT22;1597;51.572;6.992;2023-06-24T12:57:11;27.70;1.00
3172;DHT22;1597;51.572;6.992;2023-06-24T12:59:37;27.60;1.00
3172;DHT22;1597;51.572;6.992;2023-06-24T13:02:03;27.40;1.00
3172;DHT22;1597;51.572;6.992;2023-06-24T13:04:29;27.40;1.00
3172;DHT22;1597;51.572;6.992;2023-06-24T13:06:55;27.40;1.00
3172;DHT22;1597;51.572;6.992;2023-06-24T13:09:21;27.60;1.00
3172;DHT22;1597;51.572;6.992;2023-06-24T13:11:47;27.70;1.00
3172;DHT22;1597;51.572;6.992;2023-06-24T13:14:14;27.80;1.00
3172;DHT22;1597;51.572;6.992;2023-06-24T13:16:40;27.80;1.00
3172;DHT22;1597;51.572;6.992;2023-06-24T13:19:06;27.80;1.00
3172;DHT22;1597;51.572;6.992;2023-06-24T13:21:32;27.90;1.00
3172;DHT22;1597;51.572;6.992;2023-06-24T13:23:58;27.90;1.00
3172;DHT22;1597;51.572;6.992;2023-06-24T13:26:24;28.00;1.00
3172;DHT22;1597;51.572;6.992;2023-06-24T13:28:50;27.90;1.00
3172;DHT22;1597;51.572;6.992;2023-06-24T13:31:16;27.90;1.00
3172;DHT22;1597;51.572;6.992;2023-06-24T13:33:42;27.80;1.00
3172;DHT22;1597;51.572;6.992;2023-06-24T13:36:10;27.70;1.00
3172;DHT22;1597;51.572;6.992;2023-06-24T13:38:39;27.70;1.00
3172;DHT22;1597;51.572;6.992;2023-06-24T13:41:04;27.70;1.00
3172;DHT22;1597;51.572;6.992;2023-06-24T13:43:30;27.80;1.00
3172;DHT22;1597;51.572;6.992;2023-06-24T13:45:56;27.90;1.00
3172;DHT22;1597;51.572;6.992;2023-06-24T13:48:23;27.80;1.00
3172;DHT22;1597;51.572;6.992;2023-06-24T13:50:49;27.90;1.00
3172;DHT22;1597;51.572;6.992;2023-06-24T13:53:15;28.10;1.00
3172;DHT22;1597;51.572;6.992;2023-06-24T13:55:42;28.00;1.00
3172;DHT22;1597;51.572;6.992;2023-06-24T13:58:08;27.90;1.00
3172;DHT22;1597;51.572;6.992;2023-06-24T14:00:34;28.00;1.00
3172;DHT22;1597;51.572;6.992;2023-06-24T14:02:59;27.90;1.00
3172;DHT22;1597;51.572;6.992;2023-06-24T14:05:26;27.70;1.00
3172;DHT22;1597;51.572;6.992;2023-06-24T14:07:52;27.80;1.00
3172;DHT22;1597;51.572;6.992;2023-06-24T14:10:18;27.70;1.00
3172;DHT22;1597;51.572;6.992;2023-06-24T14:12:44;27.80;1.00
3172;DHT22;1597;51.572;6.992;2023-06-24T14:15:10;27.70;1.00
3172;DHT22;1597;51.572;6.992;2023-06-24T14:17:36;27.80;1.00
3172;DHT22;1597;51.572;6.992;2023-06-24T14:20:02;27.90;1.00
3172;DHT22;1597;51.572;6.992;2023-06-24T14:22:28;28.00;1.00
3172;DHT22;1597;51.572;6.992;2023-06-24T14:24:54;28.10;1.00
3172;DHT22;1597;51.572;6.992;2023-06-24T14:27:20;28.20;1.00
3172;DHT22;1597;51.572;6.992;2023-06-24T14:29:46;28.10;1.00
3172;DHT22;1597;51.572;6.992;2023-06-24T14:32:12;28.20;1.00
3172;DHT22;1597;51.572;6.992;2023-06-24T14:34:38;28.20;1.00
3172;DHT22;1597;51.572;6.992;2023-06-24T14:37:04;28.30;1.00
3172;DHT22;1597;51.572;6.992;2023-06-24T14:39:30;28.30;1.00
3172;DHT22;1597;51.572;6.992;2023-06-24T14:41:56;28.20;1.00
3172;DHT22;1597;51.572;6.992;2023-06-24T14:44:22;28.20;1.00
3172;DHT22;1597;51.572;6.992;2023-06-24T14:46:48;28.10;1.00
3172;DHT22;1597;51.572;6.992;2023-06-24T14:49:13;28.20;1.00
3172;DHT22;1597;51.572;6.992;2023-06-24T14:51:40;28.10;1.00
3172;DHT22;1597;51.572;6.992;2023-06-24T14:54:06;28.10;1.00
3172;DHT22;1597;51.572;6.992;2023-06-24T14:56:32;28.20;1.00
3172;DHT22;1597;51.572;6.992;2023-06-24T14:58:58;28.20;1.00
3172;DHT22;1597;51.572;6.992;2023-06-24T15:01:26;28.20;1.00
3172;DHT22;1597;51.572;6.992;2023-06-24T15:03:51;28.20;1.00
3172;DHT22;1597;51.572;6.992;2023-06-24T15:06:18;28.30;1.00
3172;DHT22;1597;51.572;6.992;2023-06-24T15:08:44;28.20;1.00
3172;DHT22;1597;51.572;6.992;2023-06-24T15:11:10;28.20;1.00
3172;DHT22;1597;51.572;6.992;2023-06-24T15:13:36;28.20;1.00
3172;DHT22;1597;51.572;6.992;2023-06-24T15:16:02;28.30;1.00
3172;DHT22;1597;51.572;6.992;2023-06-24T15:18:28;28.30;1.00
3172;DHT22;1597;51.572;6.992;2023-06-24T15:20:55;28.20;1.00
3172;DHT22;1597;51.572;6.992;2023-06-24T15:23:22;28.10;1.00
3172;DHT22;1597;51.572;6.992;2023-06-24T15:25:48;28.10;1.00
3172;DHT22;1597;51.572;6.992;2023-06-24T15:28:16;28.20;1.00
3172;DHT22;1597;51.572;6.992;2023-06-24T15:30:42;28.20;1.00
3172;DHT22;1597;51.572;6.992;2023-06-24T15:33:08;28.20;1.00
3172;DHT22;1597;51.572;6.992;2023-06-24T15:35:34;28.10;1.00
3172;DHT22;1597;51.572;6.992;2023-06-24T15:38:00;28.00;1.00
3172;DHT22;1597;51.572;6.992;2023-06-24T15:40:27;28.00;1.00
3172;DHT22;1597;51.572;6.992;2023-06-24T15:42:53;27.90;1.00
3172;DHT22;1597;51.572;6.992;2023-06-24T15:45:19;28.00;1.00
3172;DHT22;1597;51.572;6.992;2023-06-24T15:47:46;28.00;1.00
3172;DHT22;1597;51.572;6.992;2023-06-24T15:50:12;28.00;1.00
3172;DHT22;1597;51.572;6.992;2023-06-24T15:52:38;28.00;1.00
3172;DHT22;1597;51.572;6.992;2023-06-24T15:55:04;28.00;1.00
3172;DHT22;1597;51.572;6.992;2023-06-24T15:57:30;28.00;1.00
3172;DHT22;1597;51.572;6.992;2023-06-24T15:59:56;28.00;1.00
3172;DHT22;1597;51.572;6.992;2023-06-24T16:02:22;28.00;1.00
3172;DHT22;1597;51.572;6.992;2023-06-24T16:04:48;27.90;1.00
3172;DHT22;1597;51.572;6.992;2023-06-24T16:07:15;27.90;1.00
3172;DHT22;1597;51.572;6.992;2023-06-24T16:09:41;27.90;1.00
3172;DHT22;1597;51.572;6.992;2023-06-24T16:12:07;27.90;1.00
3172;DHT22;1597;51.572;6.992;2023-06-24T16:14:33;27.90;1.00
3172;DHT22;1597;51.572;6.992;2023-06-24T16:16:59;28.00;1.00
3172;DHT22;1597;51.572;6.992;2023-06-24T16:19:24;28.00;1.00
3172;DHT22;1597;51.572;6.992;2023-06-24T16:21:53;27.90;1.00
3172;DHT22;1597;51.572;6.992;2023-06-24T16:24:19;27.90;1.00
3172;DHT22;1597;51.572;6.992;2023-06-24T16:26:45;27.90;1.00